createdAt,value
2022-09-27T00:00:26.568Z,4.40
2022-09-27T00:01:26.608Z,5.10
2022-09-27T00:02:26.639Z,4.20
2022-09-27T00:03:26.555Z,3.90
2022-09-27T00:04:26.506Z,5.00
2022-09-27T00:05:26.495Z,3.90
2022-09-27T00:06:26.514Z,4.20
2022-09-27T00:07:26.470Z,3.90
2022-09-27T00:08:26.449Z,4.30
2022-09-27T00:09:26.437Z,3.40
2022-09-27T00:10:26.428Z,3.70
2022-09-27T00:11:26.440Z,3.30
2022-09-27T00:12:26.423Z,3.80
2022-09-27T00:13:26.429Z,3.50
2022-09-27T00:14:26.376Z,4.30
2022-09-27T00:15:26.382Z,3.60
2022-09-27T00:16:26.464Z,3.30
2022-09-27T00:17:26.344Z,3.80
2022-09-27T00:18:26.404Z,4.90
2022-09-27T00:19:26.314Z,4.00
2022-09-27T00:20:26.297Z,3.30
2022-09-27T00:21:26.277Z,4.30
2022-09-27T00:22:26.290Z,3.30
2022-09-27T00:23:26.260Z,4.00
2022-09-27T00:24:26.237Z,4.10
2022-09-27T00:25:26.233Z,4.20
2022-09-27T00:26:26.209Z,3.90
2022-09-27T00:27:26.217Z,3.80
2022-09-27T00:28:26.183Z,3.90
2022-09-27T00:29:26.189Z,4.30
2022-09-27T00:30:26.158Z,3.90
2022-09-27T00:31:26.240Z,4.10
2022-09-27T00:32:26.166Z,4.90
2022-09-27T00:33:26.118Z,3.70
2022-09-27T00:34:26.104Z,3.70
2022-09-27T00:35:26.096Z,3.70
2022-09-27T00:36:26.080Z,4.00
2022-09-27T00:37:26.088Z,3.80
2022-09-27T00:38:26.047Z,3.90
2022-09-27T00:39:26.071Z,3.80
2022-09-27T00:40:26.070Z,3.90
2022-09-27T00:41:26.011Z,3.80
2022-09-27T00:42:25.995Z,4.10
2022-09-27T00:43:25.980Z,4.20
2022-09-27T00:44:26.010Z,4.50
2022-09-27T00:45:25.966Z,3.90
2022-09-27T00:46:26.033Z,3.90
2022-09-27T00:47:25.934Z,3.80
2022-09-27T00:48:25.952Z,4.90
2022-09-27T00:49:25.913Z,4.00
2022-09-27T00:50:25.886Z,4.90
2022-09-27T00:51:25.913Z,4.30
2022-09-27T00:52:25.853Z,4.10
2022-09-27T00:53:25.851Z,6.30
2022-09-27T00:54:25.855Z,3.70
2022-09-27T00:55:25.824Z,4.20
2022-09-27T00:56:25.804Z,4.40
2022-09-27T00:57:25.818Z,4.10
2022-09-27T00:58:25.816Z,3.80
2022-09-27T00:59:25.759Z,3.60
2022-09-27T01:00:25.757Z,3.90
2022-09-27T01:01:25.788Z,3.90
2022-09-27T01:02:25.788Z,3.80
2022-09-27T01:03:25.744Z,3.70
2022-09-27T01:04:25.698Z,3.90
2022-09-27T01:05:25.700Z,4.00
2022-09-27T01:06:25.704Z,3.90
2022-09-27T01:07:25.683Z,4.00
2022-09-27T01:08:25.655Z,3.30
2022-09-27T01:09:25.626Z,3.80
2022-09-27T01:10:25.611Z,4.30
2022-09-27T01:11:25.633Z,3.90
2022-09-27T01:12:25.600Z,4.30
2022-09-27T01:13:25.609Z,5.20
2022-09-27T01:14:25.565Z,4.80
2022-09-27T01:15:25.615Z,3.80
2022-09-27T01:16:25.571Z,4.20
2022-09-27T01:17:25.532Z,3.70
2022-09-27T01:18:25.503Z,5.00
2022-09-27T01:19:25.496Z,3.70
2022-09-27T01:20:25.485Z,3.60
2022-09-27T01:21:25.491Z,3.90
2022-09-27T01:22:25.463Z,3.80
2022-09-27T01:23:25.436Z,4.10
2022-09-27T01:24:25.429Z,4.10
2022-09-27T01:25:25.415Z,3.50
2022-09-27T01:26:25.431Z,3.70
2022-09-27T01:27:25.389Z,3.80
2022-09-27T01:28:25.378Z,3.70
2022-09-27T01:29:25.357Z,3.90
2022-09-27T01:30:25.351Z,4.00
2022-09-27T01:31:25.479Z,4.20
2022-09-27T01:32:25.321Z,3.50
2022-09-27T01:33:25.304Z,3.90
2022-09-27T01:34:25.313Z,3.70
2022-09-27T01:35:25.309Z,3.40
2022-09-27T01:36:25.278Z,3.60
2022-09-27T01:37:25.253Z,3.50
2022-09-27T01:38:25.238Z,3.80
2022-09-27T01:39:25.264Z,3.40
2022-09-27T01:40:25.282Z,4.10
2022-09-27T01:41:25.190Z,3.60
2022-09-27T01:42:25.183Z,3.60
2022-09-27T01:43:25.169Z,3.70
2022-09-27T01:44:25.181Z,3.50
2022-09-27T01:45:25.172Z,5.70
2022-09-27T01:46:25.195Z,3.30
2022-09-27T01:47:25.114Z,3.80
2022-09-27T01:48:25.098Z,3.70
2022-09-27T01:49:25.085Z,3.70
2022-09-27T01:50:25.108Z,3.90
2022-09-27T01:51:25.056Z,3.80
2022-09-27T01:52:25.061Z,4.30
2022-09-27T01:53:25.027Z,4.00
2022-09-27T01:54:25.014Z,4.00
2022-09-27T01:55:25.041Z,4.10
2022-09-27T01:56:25.003Z,4.30
2022-09-27T01:57:25.008Z,5.30
2022-09-27T01:58:24.975Z,3.80
2022-09-27T01:59:24.979Z,4.50
2022-09-27T02:00:24.937Z,4.00
2022-09-27T02:01:25.015Z,3.50
2022-09-27T02:02:24.962Z,3.80
2022-09-27T02:03:24.888Z,3.80
2022-09-27T02:04:24.890Z,3.90
2022-09-27T02:05:24.868Z,3.90
2022-09-27T02:06:24.851Z,4.00
2022-09-27T02:07:24.871Z,4.10
2022-09-27T02:08:24.838Z,5.10
2022-09-27T02:09:24.808Z,4.10
2022-09-27T02:10:24.803Z,4.80
2022-09-27T02:11:24.790Z,4.00
2022-09-27T02:12:24.800Z,3.90
2022-09-27T02:13:24.784Z,3.50
2022-09-27T02:14:24.761Z,3.60
2022-09-27T02:15:24.736Z,3.60
2022-09-27T02:16:24.759Z,5.20
2022-09-27T02:17:24.733Z,4.10
2022-09-27T02:18:24.697Z,4.40
2022-09-27T02:19:24.760Z,4.00
2022-09-27T02:20:24.666Z,4.20
2022-09-27T02:21:24.657Z,6.30
2022-09-27T02:22:24.668Z,4.00
2022-09-27T02:23:24.617Z,3.80
2022-09-27T02:24:24.618Z,3.80
2022-09-27T02:25:24.620Z,3.80
2022-09-27T02:26:24.591Z,3.50
2022-09-27T02:27:24.566Z,4.40
2022-09-27T02:28:24.579Z,4.50
2022-09-27T02:29:24.547Z,3.80
2022-09-27T02:30:24.535Z,3.70
2022-09-27T02:31:24.548Z,4.40
2022-09-27T02:32:24.508Z,3.50
2022-09-27T02:33:24.515Z,3.80
2022-09-27T02:34:24.478Z,5.30
2022-09-27T02:35:24.451Z,4.00
2022-09-27T02:36:24.448Z,5.00
2022-09-27T02:37:24.434Z,4.00
2022-09-27T02:38:24.451Z,3.80
2022-09-27T02:39:24.405Z,3.40
2022-09-27T02:40:24.449Z,4.00
2022-09-27T02:41:24.373Z,4.00
2022-09-27T02:42:24.363Z,3.80
2022-09-27T02:43:24.448Z,3.70
2022-09-27T02:44:24.336Z,3.90
2022-09-27T02:45:24.326Z,4.10
2022-09-27T02:46:24.392Z,4.90
2022-09-27T02:47:24.304Z,5.30
2022-09-27T02:48:24.319Z,3.90
2022-09-27T02:49:24.280Z,5.80
2022-09-27T02:50:24.270Z,4.50
2022-09-27T02:51:24.282Z,4.30
2022-09-27T02:52:24.236Z,3.70
2022-09-27T02:53:24.214Z,3.70
2022-09-27T02:54:24.231Z,4.00
2022-09-27T02:55:24.182Z,3.70
2022-09-27T02:56:24.173Z,5.20
2022-09-27T02:57:24.163Z,3.80
2022-09-27T02:58:24.147Z,3.60
2022-09-27T02:59:24.164Z,4.00
2022-09-27T03:00:24.128Z,4.10
2022-09-27T03:01:24.184Z,3.20
2022-09-27T03:02:24.175Z,4.10
2022-09-27T03:03:24.078Z,3.40
2022-09-27T03:04:24.098Z,3.70
2022-09-27T03:05:24.098Z,3.70
2022-09-27T03:06:24.036Z,4.20
2022-09-27T03:07:24.026Z,4.10
2022-09-27T03:08:24.015Z,4.00
2022-09-27T03:09:24.029Z,5.30
2022-09-27T03:10:24.030Z,5.30
2022-09-27T03:11:23.966Z,7.00
2022-09-27T03:12:23.963Z,4.50
2022-09-27T03:13:23.950Z,4.10
2022-09-27T03:14:23.932Z,4.40
2022-09-27T03:15:23.942Z,3.50
2022-09-27T03:16:23.941Z,4.00
2022-09-27T03:17:23.885Z,4.20
2022-09-27T03:18:23.883Z,4.20
2022-09-27T03:19:23.871Z,4.20
2022-09-27T03:20:23.883Z,4.00
2022-09-27T03:21:23.855Z,4.40
2022-09-27T03:22:23.829Z,5.30
2022-09-27T03:23:23.805Z,4.50
2022-09-27T03:24:23.817Z,5.20
2022-09-27T03:25:23.786Z,5.30
2022-09-27T03:26:23.762Z,3.90
2022-09-27T03:27:23.761Z,4.00
2022-09-27T03:28:23.774Z,4.10
2022-09-27T03:29:23.729Z,3.80
2022-09-27T03:30:23.727Z,4.00
2022-09-27T03:31:23.740Z,4.50
2022-09-27T03:32:23.713Z,3.80
2022-09-27T03:33:23.675Z,4.20
2022-09-27T03:34:23.664Z,4.00
2022-09-27T03:35:23.656Z,4.40
2022-09-27T03:36:23.659Z,4.80
2022-09-27T03:37:23.625Z,11.00
2022-09-27T03:38:23.611Z,4.40
2022-09-27T03:39:23.585Z,3.70
2022-09-27T03:40:23.654Z,4.50
2022-09-27T03:41:23.588Z,4.10
2022-09-27T03:42:23.554Z,3.80
2022-09-27T03:43:23.539Z,3.70
2022-09-27T03:44:23.528Z,4.30
2022-09-27T03:45:23.540Z,3.90
2022-09-27T03:46:23.547Z,3.70
2022-09-27T03:47:23.513Z,4.30
2022-09-27T03:48:27.912Z,3.90
2022-09-27T03:49:23.454Z,4.20
2022-09-27T03:50:23.447Z,4.20
2022-09-27T03:51:23.453Z,4.60
2022-09-27T03:52:23.422Z,4.30
2022-09-27T03:53:23.402Z,3.60
2022-09-27T03:54:23.393Z,4.60
2022-09-27T03:55:23.372Z,3.90
2022-09-27T03:56:23.394Z,5.00
2022-09-27T03:57:23.361Z,5.20
2022-09-27T03:58:23.336Z,5.00
2022-09-27T03:59:23.325Z,4.10
2022-09-27T04:00:23.314Z,5.90
2022-09-27T04:01:23.349Z,3.90
2022-09-27T04:02:23.371Z,4.30
2022-09-27T04:03:23.264Z,4.10
2022-09-27T04:04:23.254Z,4.00
2022-09-27T04:05:23.249Z,4.20
2022-09-27T04:06:23.241Z,5.20
2022-09-27T04:07:23.212Z,11.10
2022-09-27T04:08:23.256Z,13.20
2022-09-27T04:09:23.182Z,16.60
2022-09-27T04:10:23.174Z,15.80
2022-09-27T04:11:23.192Z,10.40
2022-09-27T04:12:23.143Z,8.30
2022-09-27T04:13:23.165Z,9.00
2022-09-27T04:14:23.115Z,7.40
2022-09-27T04:15:23.109Z,5.70
2022-09-27T04:16:23.145Z,6.10
2022-09-27T04:17:23.081Z,9.50
2022-09-27T04:18:23.111Z,7.80
2022-09-27T04:19:23.067Z,4.50
2022-09-27T04:20:23.040Z,5.60
2022-09-27T04:21:23.077Z,4.70
2022-09-27T04:22:23.022Z,4.80
2022-09-27T04:23:27.627Z,4.50
2022-09-27T04:24:23.010Z,4.00
2022-09-27T04:25:22.959Z,6.30
2022-09-27T04:26:22.962Z,20.70
2022-09-27T04:27:22.943Z,19.20
2022-09-27T04:28:22.956Z,14.30
2022-09-27T04:29:22.917Z,20.60
2022-09-27T04:30:22.918Z,33.80
2022-09-27T04:31:23.118Z,19.60
2022-09-27T04:32:22.879Z,20.60
2022-09-27T04:33:22.857Z,12.90
2022-09-27T04:34:22.849Z,15.00
2022-09-27T04:35:22.858Z,14.40
2022-09-27T04:36:22.827Z,11.20
2022-09-27T04:37:22.805Z,6.90
2022-09-27T04:38:22.788Z,12.50
2022-09-27T04:39:22.778Z,9.10
2022-09-27T04:40:22.878Z,8.80
2022-09-27T04:41:22.752Z,6.70
2022-09-27T04:42:22.753Z,6.70
2022-09-27T04:43:22.748Z,7.90
2022-09-27T04:44:22.742Z,12.30
2022-09-27T04:45:22.716Z,7.90
2022-09-27T04:46:22.779Z,7.90
2022-09-27T04:47:22.668Z,5.80
2022-09-27T04:48:22.694Z,6.80
2022-09-27T04:49:22.633Z,7.20
2022-09-27T04:50:22.640Z,8.20
2022-09-27T04:51:22.616Z,5.60
2022-09-27T04:52:22.629Z,5.90
2022-09-27T04:53:22.580Z,5.20
2022-09-27T04:54:22.580Z,4.90
2022-09-27T04:55:22.587Z,5.90
2022-09-27T04:56:22.548Z,6.10
2022-09-27T04:57:22.535Z,3.90
2022-09-27T04:58:22.518Z,5.50
2022-09-27T04:59:22.500Z,4.30
2022-09-27T05:00:22.539Z,7.30
2022-09-27T05:01:22.498Z,3.70
2022-09-27T05:02:22.588Z,4.70
2022-09-27T05:03:22.451Z,3.90
2022-09-27T05:04:22.438Z,4.10
2022-09-27T05:05:22.422Z,4.20
2022-09-27T05:06:22.436Z,4.40
2022-09-27T05:07:22.426Z,4.40
2022-09-27T05:08:22.386Z,4.50
2022-09-27T05:09:22.367Z,4.40
2022-09-27T05:10:22.361Z,4.50
2022-09-27T05:11:22.337Z,4.50
2022-09-27T05:12:22.350Z,5.10
2022-09-27T05:13:22.321Z,5.00
2022-09-27T05:14:22.346Z,4.50
2022-09-27T05:15:22.290Z,4.70
2022-09-27T05:16:22.322Z,4.80
2022-09-27T05:17:22.260Z,4.70
2022-09-27T05:18:22.265Z,4.90
2022-09-27T05:19:22.234Z,4.50
2022-09-27T05:20:22.218Z,5.00
2022-09-27T05:21:22.207Z,4.90
2022-09-27T05:22:22.193Z,5.10
2022-09-27T05:23:22.194Z,6.60
2022-09-27T05:24:22.220Z,6.90
2022-09-27T05:25:22.150Z,5.60
2022-09-27T05:26:22.131Z,6.20
2022-09-27T05:27:22.127Z,5.60
2022-09-27T05:28:22.140Z,5.60
2022-09-27T05:29:22.091Z,6.90
2022-09-27T05:30:22.112Z,6.00
2022-09-27T05:31:22.169Z,4.40
2022-09-27T05:32:22.052Z,7.30
2022-09-27T05:33:22.041Z,9.00
2022-09-27T05:34:22.027Z,15.70
2022-09-27T05:35:22.040Z,14.10
2022-09-27T05:36:21.997Z,20.40
2022-09-27T05:37:21.987Z,23.30
2022-09-27T05:38:21.962Z,21.70
2022-09-27T05:39:21.994Z,21.00
2022-09-27T05:40:40.269Z,15.70
2022-09-27T05:41:22.047Z,13.80
2022-09-27T05:42:21.939Z,12.50
2022-09-27T05:43:21.901Z,14.10
2022-09-27T05:44:21.889Z,11.40
2022-09-27T05:45:21.874Z,9.50
2022-09-27T05:46:21.961Z,9.40
2022-09-27T05:47:21.876Z,11.50
2022-09-27T05:48:21.828Z,9.20
2022-09-27T05:49:21.820Z,9.90
2022-09-27T05:50:21.835Z,7.10
2022-09-27T05:51:21.791Z,7.70
2022-09-27T05:52:23.334Z,7.10
2022-09-27T05:53:21.761Z,6.70
2022-09-27T05:54:21.750Z,6.80
2022-09-27T05:55:21.769Z,8.70
2022-09-27T05:56:21.715Z,9.00
2022-09-27T05:57:21.721Z,10.50
2022-09-27T05:58:21.725Z,16.70
2022-09-27T05:59:21.680Z,9.10
2022-09-27T06:00:21.675Z,7.50
2022-09-27T06:01:21.694Z,7.00
2022-09-27T06:02:21.708Z,10.10
2022-09-27T06:03:21.638Z,8.70
2022-09-27T06:04:21.639Z,6.90
2022-09-27T06:05:21.609Z,6.80
2022-09-27T06:06:21.597Z,8.80
2022-09-27T06:07:21.568Z,7.50
2022-09-27T06:08:21.587Z,7.20
2022-09-27T06:09:21.553Z,7.00
2022-09-27T06:10:21.557Z,7.80
2022-09-27T06:11:21.521Z,5.90
2022-09-27T06:12:21.503Z,6.10
2022-09-27T06:13:21.508Z,5.50
2022-09-27T06:14:21.544Z,5.20
2022-09-27T06:15:21.511Z,6.00
2022-09-27T06:16:21.542Z,5.80
2022-09-27T06:17:21.440Z,5.40
2022-09-27T06:18:21.421Z,4.60
2022-09-27T06:19:21.440Z,4.30
2022-09-27T06:20:21.402Z,4.30
2022-09-27T06:21:21.392Z,4.60
2022-09-27T06:22:21.359Z,4.30
2022-09-27T06:23:21.357Z,4.40
2022-09-27T06:24:21.371Z,6.20
2022-09-27T06:25:21.335Z,5.20
2022-09-27T06:26:21.308Z,4.60
2022-09-27T06:27:21.303Z,7.10
2022-09-27T06:28:21.333Z,7.60
2022-09-27T06:29:21.321Z,7.60
2022-09-27T06:30:21.325Z,6.10
2022-09-27T06:31:21.319Z,5.00
2022-09-27T06:32:21.240Z,5.00
2022-09-27T06:33:21.266Z,5.00
2022-09-27T06:34:21.221Z,3.90
2022-09-27T06:35:21.214Z,5.10
2022-09-27T06:36:21.179Z,4.20
2022-09-27T06:37:21.162Z,5.20
2022-09-27T06:38:21.185Z,4.50
2022-09-27T06:39:21.128Z,4.80
2022-09-27T06:40:21.184Z,4.40
2022-09-27T06:41:21.137Z,4.10
2022-09-27T06:42:21.090Z,4.10
2022-09-27T06:43:21.270Z,4.10
2022-09-27T06:44:21.064Z,3.90
2022-09-27T06:45:21.082Z,4.00
2022-09-27T06:46:21.116Z,3.90
2022-09-27T06:47:21.101Z,3.70
2022-09-27T06:48:21.007Z,4.40
2022-09-27T06:49:21.021Z,3.80
2022-09-27T06:50:20.994Z,3.90
2022-09-27T06:51:20.973Z,4.40
2022-09-27T06:52:20.964Z,4.60
2022-09-27T06:53:20.972Z,4.10
2022-09-27T06:54:20.952Z,4.10
2022-09-27T06:55:20.922Z,4.50
2022-09-27T06:56:20.895Z,5.30
2022-09-27T06:57:20.896Z,4.60
2022-09-27T06:58:20.870Z,4.30
2022-09-27T06:59:20.892Z,4.20
2022-09-27T07:00:20.856Z,6.00
2022-09-27T07:01:20.896Z,4.50
2022-09-27T07:02:20.844Z,4.90
2022-09-27T07:03:20.806Z,5.10
2022-09-27T07:04:20.793Z,11.40
2022-09-27T07:05:20.782Z,10.10
2022-09-27T07:06:20.906Z,21.50
2022-09-27T07:07:20.785Z,14.70
2022-09-27T07:08:20.741Z,4.20
2022-09-27T07:09:20.722Z,5.50
2022-09-27T07:10:20.712Z,4.50
2022-09-27T07:11:20.724Z,21.50
2022-09-27T07:12:20.685Z,10.00
2022-09-27T07:13:20.698Z,5.70
2022-09-27T07:14:20.694Z,4.50
2022-09-27T07:15:20.647Z,4.50
2022-09-27T07:16:20.711Z,4.90
2022-09-27T07:17:20.657Z,4.40
2022-09-27T07:18:20.625Z,4.10
2022-09-27T07:19:20.591Z,4.20
2022-09-27T07:20:20.576Z,3.90
2022-09-27T07:21:20.582Z,3.90
2022-09-27T07:22:20.569Z,3.90
2022-09-27T07:23:20.549Z,4.00
2022-09-27T07:24:20.521Z,3.80
2022-09-27T07:25:20.504Z,4.00
2022-09-27T07:26:20.499Z,4.10
2022-09-27T07:27:20.502Z,5.90
2022-09-27T07:28:21.967Z,5.60
2022-09-27T07:29:20.453Z,4.70
2022-09-27T07:30:20.470Z,6.00
2022-09-27T07:31:20.429Z,5.20
2022-09-27T07:32:20.408Z,4.40
2022-09-27T07:33:20.407Z,8.20
2022-09-27T07:34:20.414Z,12.50
2022-09-27T07:35:20.379Z,7.80
2022-09-27T07:36:20.356Z,4.40
2022-09-27T07:37:20.342Z,4.50
2022-09-27T07:38:20.340Z,5.60
2022-09-27T07:39:20.346Z,5.00
2022-09-27T07:40:20.329Z,3.20
2022-09-27T07:41:20.294Z,3.10
2022-09-27T07:42:20.292Z,2.70
2022-09-27T07:43:20.267Z,3.10
2022-09-27T07:44:20.244Z,3.10
2022-09-27T07:45:20.258Z,5.00
2022-09-27T07:46:20.300Z,7.10
2022-09-27T07:47:20.219Z,3.70
2022-09-27T07:48:20.202Z,5.20
2022-09-27T07:49:20.180Z,4.50
2022-09-27T07:50:20.181Z,3.40
2022-09-27T07:51:20.183Z,4.40
2022-09-27T07:52:20.140Z,3.30
2022-09-27T07:53:20.132Z,2.90
2022-09-27T07:54:20.111Z,3.70
2022-09-27T07:55:20.119Z,2.80
2022-09-27T07:56:20.123Z,2.60
2022-09-27T07:57:20.073Z,2.90
2022-09-27T07:58:20.063Z,3.60
2022-09-27T07:59:20.044Z,4.20
2022-09-27T08:00:20.034Z,3.50
2022-09-27T08:01:20.180Z,3.00
2022-09-27T08:02:20.103Z,3.00
2022-09-27T08:03:20.029Z,2.70
2022-09-27T08:04:19.970Z,2.60
2022-09-27T08:05:20.030Z,3.50
2022-09-27T08:06:19.941Z,5.40
2022-09-27T08:07:19.931Z,4.50
2022-09-27T08:08:19.959Z,4.60
2022-09-27T08:09:19.943Z,4.10
2022-09-27T08:10:19.959Z,3.30
2022-09-27T08:11:19.943Z,3.90
2022-09-27T08:12:19.996Z,3.40
2022-09-27T08:13:19.941Z,2.90
2022-09-27T08:14:19.837Z,2.80
2022-09-27T08:15:19.863Z,3.10
2022-09-27T08:16:19.885Z,3.10
2022-09-27T08:17:19.813Z,3.20
2022-09-27T08:18:19.799Z,3.00
2022-09-27T08:19:19.810Z,3.10
2022-09-27T08:20:19.780Z,2.80
2022-09-27T08:21:19.773Z,3.40
2022-09-27T08:22:19.729Z,3.10
2022-09-27T08:23:19.722Z,2.90
2022-09-27T08:24:19.710Z,2.80
2022-09-27T08:25:19.733Z,2.70
2022-09-27T08:26:19.681Z,3.50
2022-09-27T08:27:19.807Z,4.00
2022-09-27T08:28:19.680Z,4.60
2022-09-27T08:29:19.652Z,4.40
2022-09-27T08:30:19.628Z,3.80
2022-09-27T08:31:19.689Z,3.30
2022-09-27T08:32:23.274Z,4.70
2022-09-27T08:33:19.586Z,4.10
2022-09-27T08:34:19.583Z,3.60
2022-09-27T08:35:19.586Z,3.10
2022-09-27T08:36:19.546Z,3.70
2022-09-27T08:37:19.564Z,3.80
2022-09-27T08:38:19.525Z,3.40
2022-09-27T08:39:19.528Z,3.60
2022-09-27T08:40:19.550Z,2.80
2022-09-27T08:41:19.479Z,2.60
2022-09-27T08:42:19.490Z,3.10
2022-09-27T08:43:19.466Z,2.70
2022-09-27T08:44:19.428Z,2.70
2022-09-27T08:45:19.450Z,2.40
2022-09-27T08:46:19.462Z,3.00
2022-09-27T08:47:19.395Z,2.70
2022-09-27T08:48:19.390Z,3.30
2022-09-27T08:49:19.374Z,4.00
2022-09-27T08:50:19.389Z,3.40
2022-09-27T08:51:19.363Z,2.80
2022-09-27T08:52:19.324Z,2.20
2022-09-27T08:53:19.338Z,2.60
2022-09-27T08:54:19.323Z,2.10
2022-09-27T08:55:19.298Z,2.50
2022-09-27T08:56:19.275Z,2.20
2022-09-27T08:57:19.288Z,2.70
2022-09-27T08:58:19.243Z,2.30
2022-09-27T08:59:19.268Z,2.70
2022-09-27T09:00:19.224Z,2.90
2022-09-27T09:01:19.268Z,2.40
2022-09-27T09:02:19.310Z,2.70
2022-09-27T09:03:19.209Z,2.30
2022-09-27T09:04:19.187Z,2.30
2022-09-27T09:05:19.158Z,2.90
2022-09-27T09:06:19.135Z,2.70
2022-09-27T09:07:19.143Z,2.50
2022-09-27T09:08:19.128Z,2.70
2022-09-27T09:09:19.120Z,3.00
2022-09-27T09:10:19.086Z,2.40
2022-09-27T09:11:19.068Z,2.60
2022-09-27T09:12:19.051Z,2.30
2022-09-27T09:13:19.069Z,2.40
2022-09-27T09:14:19.410Z,2.40
2022-09-27T09:15:19.020Z,2.00
2022-09-27T09:16:19.068Z,2.00
2022-09-27T09:17:19.001Z,2.50
2022-09-27T09:18:18.979Z,2.20
2022-09-27T09:19:18.960Z,2.10
2022-09-27T09:20:18.973Z,2.40
2022-09-27T09:21:18.932Z,2.10
2022-09-27T09:22:18.917Z,2.10
2022-09-27T09:23:18.950Z,2.20
2022-09-27T09:24:18.901Z,4.30
2022-09-27T09:25:18.873Z,2.40
2022-09-27T09:26:18.872Z,2.70
2022-09-27T09:27:18.879Z,3.50
2022-09-27T09:28:18.836Z,2.80
2022-09-27T09:29:18.825Z,2.50
2022-09-27T09:30:18.811Z,9.30
2022-09-27T09:31:18.852Z,18.20
2022-09-27T09:32:18.807Z,8.90
2022-09-27T09:33:18.769Z,7.20
2022-09-27T09:34:18.761Z,4.00
2022-09-27T09:35:18.742Z,3.00
2022-09-27T09:36:18.740Z,2.90
2022-09-27T09:37:18.739Z,2.90
2022-09-27T09:38:18.700Z,3.00
2022-09-27T09:39:18.692Z,2.70
2022-09-27T09:40:18.722Z,2.30
2022-09-27T09:41:18.658Z,2.30
2022-09-27T09:42:18.708Z,2.10
2022-09-27T09:43:18.655Z,2.20
2022-09-27T09:44:18.674Z,1.90
2022-09-27T09:45:18.607Z,2.30
2022-09-27T09:46:18.603Z,2.20
2022-09-27T09:47:18.579Z,6.00
2022-09-27T09:48:18.597Z,4.90
2022-09-27T09:49:18.557Z,3.10
2022-09-27T09:50:18.567Z,18.80
2022-09-27T09:51:18.530Z,3.40
2022-09-27T09:52:18.518Z,3.10
2022-09-27T09:53:18.507Z,2.90
2022-09-27T09:54:18.488Z,3.20
2022-09-27T09:55:18.497Z,2.80
2022-09-27T09:56:18.460Z,2.40
2022-09-27T09:57:18.439Z,2.40
2022-09-27T09:58:20.056Z,2.20
2022-09-27T09:59:18.442Z,2.30
2022-09-27T10:00:18.433Z,2.00
2022-09-27T10:01:18.474Z,2.00
2022-09-27T10:02:18.470Z,1.60
2022-09-27T10:03:18.367Z,2.20
2022-09-27T10:04:18.347Z,2.00
2022-09-27T10:05:18.346Z,2.00
2022-09-27T10:06:18.351Z,1.80
2022-09-27T10:07:18.322Z,1.90
2022-09-27T10:08:18.296Z,1.70
2022-09-27T10:09:18.287Z,2.10
2022-09-27T10:10:18.290Z,1.70
2022-09-27T10:11:18.254Z,1.80
2022-09-27T10:12:18.272Z,1.80
2022-09-27T10:13:18.227Z,2.10
2022-09-27T10:14:18.214Z,1.80
2022-09-27T10:15:18.196Z,1.70
2022-09-27T10:16:18.281Z,1.70
2022-09-27T10:17:18.173Z,1.80
2022-09-27T10:18:18.227Z,2.00
2022-09-27T10:19:18.140Z,1.90
2022-09-27T10:20:18.132Z,2.10
2022-09-27T10:21:18.117Z,1.80
2022-09-27T10:22:18.098Z,1.90
2022-09-27T10:23:18.122Z,1.80
2022-09-27T10:24:18.995Z,2.20
2022-09-27T10:25:18.092Z,2.00
2022-09-27T10:26:18.055Z,4.70
2022-09-27T10:27:18.036Z,2.50
2022-09-27T10:28:18.030Z,1.90
2022-09-27T10:29:18.021Z,2.00
2022-09-27T10:30:18.032Z,2.10
2022-09-27T10:31:18.021Z,1.70
2022-09-27T10:32:17.968Z,2.60
2022-09-27T10:33:17.956Z,2.00
2022-09-27T10:34:17.985Z,2.00
2022-09-27T10:35:22.821Z,2.00
2022-09-27T10:36:17.947Z,2.00
2022-09-27T10:37:17.896Z,2.00
2022-09-27T10:38:17.883Z,1.90
2022-09-27T10:39:17.894Z,2.10
2022-09-27T10:40:17.920Z,1.80
2022-09-27T10:41:17.843Z,1.80
2022-09-27T10:42:17.853Z,1.80
2022-09-27T10:43:17.820Z,1.90
2022-09-27T10:44:18.120Z,2.10
2022-09-27T10:45:17.792Z,2.00
2022-09-27T10:46:17.777Z,2.60
2022-09-27T10:47:17.795Z,2.10
2022-09-27T10:48:17.771Z,2.20
2022-09-27T10:49:17.737Z,2.00
2022-09-27T10:50:38.945Z,2.00
2022-09-27T10:51:17.708Z,1.80
2022-09-27T10:52:17.737Z,9.60
2022-09-27T10:53:17.686Z,17.00
2022-09-27T10:54:17.704Z,14.00
2022-09-27T10:55:17.692Z,17.80
2022-09-27T10:56:17.651Z,8.80
2022-09-27T10:57:17.624Z,27.70
2022-09-27T10:58:17.614Z,14.20
2022-09-27T10:59:17.598Z,4.80
2022-09-27T11:00:17.610Z,6.00
2022-09-27T11:01:17.717Z,4.40
2022-09-27T11:02:17.553Z,4.00
2022-09-27T11:03:17.550Z,3.50
2022-09-27T11:04:17.760Z,2.50
2022-09-27T11:05:17.557Z,2.60
2022-09-27T11:06:17.526Z,2.20
2022-09-27T11:07:17.490Z,2.20
2022-09-27T11:08:17.479Z,3.40
2022-09-27T11:09:17.471Z,7.50
2022-09-27T11:10:17.455Z,4.10
2022-09-27T11:11:17.460Z,6.70
2022-09-27T11:12:17.447Z,6.30
2022-09-27T11:13:17.407Z,4.00
2022-09-27T11:14:17.570Z,10.40
2022-09-27T11:15:17.385Z,4.70
2022-09-27T11:16:17.406Z,4.90
2022-09-27T11:17:17.344Z,4.20
2022-09-27T11:18:17.358Z,3.00
2022-09-27T11:19:17.353Z,3.60
2022-09-27T11:20:17.339Z,3.70
2022-09-27T11:21:17.306Z,3.30
2022-09-27T11:22:17.291Z,3.40
2022-09-27T11:23:17.494Z,3.60
2022-09-27T11:24:17.263Z,3.90
2022-09-27T11:25:17.250Z,4.70
2022-09-27T11:26:17.239Z,3.20
2022-09-27T11:27:17.238Z,2.50
2022-09-27T11:28:17.198Z,2.00
2022-09-27T11:29:17.186Z,5.10
2022-09-27T11:30:17.199Z,2.10
2022-09-27T11:31:19.828Z,2.40
2022-09-27T11:32:17.151Z,2.40
2022-09-27T11:33:17.141Z,2.30
2022-09-27T11:34:17.272Z,2.20
2022-09-27T11:35:17.113Z,2.60
2022-09-27T11:36:17.099Z,1.90
2022-09-27T11:37:17.106Z,2.20
2022-09-27T11:38:34.573Z,1.90
2022-09-27T11:39:17.307Z,2.30
2022-09-27T11:40:17.137Z,2.20
2022-09-27T11:41:17.026Z,2.50
2022-09-27T11:42:17.045Z,2.20
2022-09-27T11:43:17.000Z,2.20
2022-09-27T11:44:17.010Z,2.60
2022-09-27T11:45:37.024Z,19.20
2022-09-27T11:46:23.910Z,41.90
2022-09-27T11:47:17.039Z,26.90
2022-09-27T11:48:16.958Z,8.40
2022-09-27T11:49:17.095Z,4.80
2022-09-27T11:50:16.932Z,3.80
2022-09-27T11:51:16.920Z,3.30
2022-09-27T11:52:16.883Z,5.10
2022-09-27T11:53:16.933Z,4.40
2022-09-27T11:54:17.022Z,2.90
2022-09-27T11:55:16.835Z,2.10
2022-09-27T11:56:16.868Z,2.40
2022-09-27T11:57:16.828Z,12.60
2022-09-27T11:58:16.799Z,7.20
2022-09-27T11:59:20.146Z,2.60
2022-09-27T12:00:16.910Z,2.20
2022-09-27T12:01:16.753Z,3.40
2022-09-27T12:02:16.841Z,2.50
2022-09-27T12:03:16.740Z,2.20
2022-09-27T12:04:16.716Z,2.30
2022-09-27T12:05:16.697Z,2.80
2022-09-27T12:06:16.702Z,2.50
2022-09-27T12:07:16.668Z,2.10
2022-09-27T12:08:16.700Z,2.40
2022-09-27T12:09:16.790Z,1.90
2022-09-27T12:10:16.677Z,2.90
2022-09-27T12:11:16.634Z,3.30
2022-09-27T12:12:16.634Z,2.30
2022-09-27T12:13:16.620Z,2.00
2022-09-27T12:14:16.587Z,2.30
2022-09-27T12:15:16.564Z,2.50
2022-09-27T12:16:16.567Z,1.90
2022-09-27T12:17:16.536Z,2.40
2022-09-27T12:18:16.525Z,2.10
2022-09-27T12:19:16.659Z,1.50
2022-09-27T12:20:16.835Z,1.50
2022-09-27T12:21:16.500Z,1.70
2022-09-27T12:22:16.466Z,2.20
2022-09-27T12:23:16.445Z,1.60
2022-09-27T12:24:16.463Z,1.60
2022-09-27T12:25:20.509Z,1.10
2022-09-27T12:26:16.422Z,1.10
2022-09-27T12:27:16.395Z,1.40
2022-09-27T12:28:16.385Z,1.20
2022-09-27T12:29:16.555Z,2.10
2022-09-27T12:30:16.439Z,1.90
2022-09-27T12:31:31.762Z,1.30
2022-09-27T12:32:16.377Z,1.90
2022-09-27T12:33:16.321Z,1.50
2022-09-27T12:34:19.924Z,1.30
2022-09-27T12:35:16.317Z,1.40
2022-09-27T12:36:16.285Z,1.20
2022-09-27T12:37:16.266Z,1.50
2022-09-27T12:38:16.271Z,2.40
2022-09-27T12:39:16.376Z,2.20
2022-09-27T12:40:16.378Z,2.00
2022-09-27T12:41:16.211Z,2.40
2022-09-27T12:42:16.197Z,1.80
2022-09-27T12:43:16.179Z,1.30
2022-09-27T12:44:16.313Z,1.50
2022-09-27T12:45:16.174Z,1.40
2022-09-27T12:46:16.236Z,1.90
2022-09-27T12:47:16.152Z,2.10
2022-09-27T12:48:16.117Z,1.10
2022-09-27T12:49:16.222Z,1.40
2022-09-27T12:50:16.105Z,1.90
2022-09-27T12:51:16.075Z,1.70
2022-09-27T12:52:16.185Z,1.80
2022-09-27T12:53:16.053Z,1.40
2022-09-27T12:54:16.032Z,1.90
2022-09-27T12:55:16.048Z,1.70
2022-09-27T12:56:16.010Z,1.80
2022-09-27T12:57:18.209Z,1.60
2022-09-27T12:58:15.979Z,1.70
2022-09-27T12:59:16.023Z,1.70
2022-09-27T13:00:15.980Z,1.60
2022-09-27T13:01:16.043Z,1.80
2022-09-27T13:02:15.964Z,1.70
2022-09-27T13:03:17.116Z,1.60
2022-09-27T13:04:15.896Z,1.40
2022-09-27T13:05:15.901Z,1.50
2022-09-27T13:06:15.879Z,1.10
2022-09-27T13:07:15.851Z,1.50
2022-09-27T13:08:15.887Z,1.60
2022-09-27T13:09:16.116Z,2.10
2022-09-27T13:10:15.821Z,1.20
2022-09-27T13:11:15.796Z,1.40
2022-09-27T13:12:15.781Z,1.60
2022-09-27T13:13:15.776Z,1.80
2022-09-27T13:14:15.879Z,1.60
2022-09-27T13:15:15.750Z,1.60
2022-09-27T13:16:15.804Z,1.70